Time;durP1;ratioP1;P1;durP2;ratioP2;P2;SDS_P1;SDS_P2;PMS_P1;PMS_P2;Temp;Humidity;BMP_temperature;BMP_pressure;BME280_temperature;BME280_humidity;BME280_pressure;Samples;Min_cycle;Max_cycle;Signal;HPM_P1;HPM_P2
2022/07/25 00:00:59;;;;;;;12.45;2.67;;;19.50;99.90;;;;;;5049389;28;20059;-67
2022/07/25 00:03:25;;;;;;;15.88;3.33;;;19.50;99.90;;;;;;5064962;28;20493;-68
2022/07/25 00:05:51;;;;;;;11.40;2.35;;;19.50;99.90;;;;;;5055025;28;20043;-69
2022/07/25 00:08:17;;;;;;;11.93;3.08;;;19.50;99.90;;;;;;5048594;28;20093;-68
2022/07/25 00:10:43;;;;;;;12.85;3.13;;;19.50;99.90;;;;;;5054948;28;20712;-69
2022/07/25 00:13:09;;;;;;;8.98;2.45;;;19.60;99.90;;;;;;5036534;28;20681;-68
2022/07/25 00:15:35;;;;;;;12.63;2.80;;;19.60;99.90;;;;;;5059960;28;20447;-68
2022/07/25 00:18:00;;;;;;;10.07;2.38;;;19.60;99.90;;;;;;5069738;28;20448;-68
2022/07/25 00:20:26;;;;;;;10.48;2.60;;;19.60;99.90;;;;;;5043611;28;20039;-67
2022/07/25 00:22:52;;;;;;;9.95;2.40;;;19.60;99.90;;;;;;5057559;28;20088;-66
2022/07/25 00:25:17;;;;;;;12.52;2.70;;;19.60;99.90;;;;;;5060628;28;20026;-65
2022/07/25 00:27:43;;;;;;;11.40;2.53;;;19.70;99.90;;;;;;5062693;28;20084;-65
2022/07/25 00:30:09;;;;;;;14.77;2.85;;;19.60;99.90;;;;;;5060792;28;20033;-66
2022/07/25 00:32:35;;;;;;;9.27;2.70;;;19.70;99.90;;;;;;5059838;28;20745;-69
2022/07/25 00:35:03;;;;;;;11.82;2.72;;;19.70;99.90;;;;;;5070289;28;20032;-67
2022/07/25 00:37:28;;;;;;;9.68;2.55;;;19.70;99.90;;;;;;5067010;28;20036;-67
2022/07/25 00:39:54;;;;;;;13.50;3.47;;;19.60;99.90;;;;;;5057220;28;20037;-68
2022/07/25 00:42:20;;;;;;;12.45;3.15;;;19.60;99.90;;;;;;5054039;28;20037;-68
2022/07/25 00:44:46;;;;;;;10.52;2.58;;;19.70;99.90;;;;;;5069721;28;20107;-68
2022/07/25 00:47:12;;;;;;;10.10;2.90;;;19.70;99.90;;;;;;5063275;28;20107;-69
2022/07/25 00:49:37;;;;;;;9.70;2.40;;;19.70;99.90;;;;;;5060933;28;20487;-68
2022/07/25 00:52:03;;;;;;;9.40;2.95;;;19.70;99.90;;;;;;5042658;28;20041;-67
2022/07/25 00:54:29;;;;;;;9.10;2.67;;;19.70;99.90;;;;;;5039432;28;20127;-68
2022/07/25 00:56:55;;;;;;;12.88;3.38;;;19.70;99.90;;;;;;5062657;28;20090;-68
2022/07/25 00:59:20;;;;;;;11.75;2.92;;;19.70;99.90;;;;;;5069025;28;20028;-69
2022/07/25 01:01:48;;;;;;;9.50;3.05;;;19.70;99.90;;;;;;5049058;28;20033;-67
2022/07/25 01:04:14;;;;;;;8.80;3.20;;;19.70;99.90;;;;;;5064173;28;20036;-68
2022/07/25 01:06:40;;;;;;;12.55;3.42;;;19.70;99.90;;;;;;5058855;28;20032;-68
2022/07/25 01:09:06;;;;;;;11.93;3.20;;;19.70;99.90;;;;;;5051304;28;20094;-67
2022/07/25 01:11:32;;;;;;;14.35;3.60;;;19.70;99.90;;;;;;5053185;28;20041;-68
2022/07/25 01:13:58;;;;;;;12.10;3.17;;;19.70;99.90;;;;;;5064821;28;20078;-66
2022/07/25 01:16:23;;;;;;;15.27;3.60;;;19.60;99.90;;;;;;5061212;28;20032;-68
2022/07/25 01:18:49;;;;;;;11.65;3.42;;;19.60;99.90;;;;;;5049186;28;20040;-67
2022/07/25 01:21:15;;;;;;;15.75;3.97;;;19.60;99.90;;;;;;5060377;28;20032;-68
2022/07/25 01:23:40;;;;;;;14.70;3.67;;;19.60;99.90;;;;;;5065880;28;20532;-68
2022/07/25 01:26:06;;;;;;;13.23;3.83;;;19.60;99.90;;;;;;5069249;28;20510;-67
2022/07/25 01:28:32;;;;;;;11.15;3.60;;;19.60;99.90;;;;;;5067608;28;20048;-68
2022/07/25 01:30:58;;;;;;;15.07;4.05;;;19.60;99.90;;;;;;5062124;28;20749;-69
2022/07/25 01:33:23;;;;;;;14.65;4.13;;;19.60;99.90;;;;;;5069094;28;20040;-68
2022/07/25 01:35:50;;;;;;;12.30;3.80;;;19.50;99.90;;;;;;5068092;28;20062;-68
2022/07/25 01:38:16;;;;;;;15.15;3.97;;;19.60;99.90;;;;;;5067140;28;20051;-68
2022/07/25 01:40:42;;;;;;;13.10;3.70;;;19.60;99.90;;;;;;5061746;28;20028;-67
2022/07/25 01:43:08;;;;;;;10.40;3.60;;;19.60;99.90;;;;;;5068155;28;20116;-67
2022/07/25 01:45:34;;;;;;;11.82;3.50;;;19.60;99.90;;;;;;5067176;28;20032;-68
2022/07/25 01:48:00;;;;;;;11.52;3.67;;;19.60;99.90;;;;;;5064975;28;20049;-67
2022/07/25 01:50:26;;;;;;;12.10;3.33;;;19.60;99.90;;;;;;5067218;28;20036;-67
2022/07/25 01:52:51;;;;;;;12.65;3.10;;;19.60;99.90;;;;;;5059519;28;20028;-67
2022/07/25 01:55:17;;;;;;;8.95;3.13;;;19.50;99.90;;;;;;5060251;28;20060;-67
2022/07/25 01:57:43;;;;;;;12.52;3.70;;;19.50;99.90;;;;;;5068674;28;20119;-67
2022/07/25 02:00:12;;;;;;;12.95;4.07;;;19.50;99.90;;;;;;5063799;28;20106;-67
2022/07/25 02:02:39;;;;;;;10.32;3.35;;;19.50;99.90;;;;;;5049294;28;20115;-68
2022/07/25 02:05:05;;;;;;;10.93;3.53;;;19.50;99.90;;;;;;5062844;28;20040;-68
2022/07/25 02:07:31;;;;;;;14.65;4.05;;;19.50;99.90;;;;;;5067452;28;20510;-67
2022/07/25 02:09:57;;;;;;;19.25;4.05;;;19.50;99.90;;;;;;5062318;28;20038;-67
2022/07/25 02:12:22;;;;;;;15.32;4.00;;;19.50;99.90;;;;;;5058441;28;20031;-68
2022/07/25 02:14:48;;;;;;;11.98;3.65;;;19.40;99.90;;;;;;5059606;28;20057;-68
2022/07/25 02:17:14;;;;;;;16.88;3.78;;;19.40;99.90;;;;;;5046373;28;20040;-68
2022/07/25 02:19:39;;;;;;;14.40;4.18;;;19.40;99.90;;;;;;5027839;28;20041;-67
2022/07/25 02:22:05;;;;;;;12.25;3.55;;;19.30;99.90;;;;;;5048685;28;20047;-67
2022/07/25 02:24:31;;;;;;;13.32;3.78;;;19.30;99.90;;;;;;5047579;28;20029;-67
2022/07/25 02:26:57;;;;;;;11.25;3.55;;;19.30;99.90;;;;;;5056699;28;20407;-67
2022/07/25 02:29:22;;;;;;;12.73;3.60;;;19.30;99.90;;;;;;5054075;28;20071;-68
2022/07/25 02:31:48;;;;;;;13.55;4.03;;;19.30;99.90;;;;;;5050451;28;20064;-67
2022/07/25 02:34:14;;;;;;;12.50;3.90;;;19.30;99.90;;;;;;5049064;28;20044;-68
2022/07/25 02:36:39;;;;;;;10.65;3.80;;;19.20;99.90;;;;;;5031489;28;20550;-67
2022/07/25 02:39:05;;;;;;;12.05;3.58;;;19.20;99.90;;;;;;5057720;28;20040;-68
2022/07/25 02:41:31;;;;;;;12.55;3.60;;;19.20;99.90;;;;;;5058990;28;20123;-67
2022/07/25 02:43:57;;;;;;;12.05;4.05;;;19.20;99.90;;;;;;5063312;28;20033;-67
2022/07/25 02:46:23;;;;;;;13.13;4.05;;;19.20;99.90;;;;;;5066785;28;20029;-67
2022/07/25 02:48:49;;;;;;;12.10;4.18;;;19.20;99.90;;;;;;5057477;28;20028;-67
2022/07/25 02:51:14;;;;;;;10.80;3.97;;;19.20;99.90;;;;;;5060650;28;20051;-68
2022/07/25 02:53:40;;;;;;;13.05;4.45;;;19.20;99.90;;;;;;5059258;28;20028;-68
2022/07/25 02:56:06;;;;;;;15.80;4.43;;;19.20;99.90;;;;;;5058960;28;20063;-67
2022/07/25 02:58:32;;;;;;;15.05;4.25;;;19.20;99.90;;;;;;5051018;28;20812;-67
2022/07/25 03:00:57;;;;;;;15.45;4.97;;;19.20;99.90;;;;;;5050519;28;20087;-66
2022/07/25 03:03:23;;;;;;;13.32;4.47;;;19.20;99.90;;;;;;5067668;28;20478;-66
2022/07/25 03:05:48;;;;;;;15.40;4.50;;;19.20;99.90;;;;;;5067450;28;20033;-67
2022/07/25 03:08:14;;;;;;;15.02;4.95;;;19.10;99.90;;;;;;5061588;28;20566;-67
2022/07/25 03:10:40;;;;;;;17.27;5.15;;;19.00;99.90;;;;;;5048984;28;20041;-67
2022/07/25 03:13:05;;;;;;;17.65;5.25;;;19.00;99.90;;;;;;5063876;28;20041;-67
2022/07/25 03:15:31;;;;;;;17.85;5.13;;;18.90;99.90;;;;;;5067459;28;20128;-67
2022/07/25 03:17:57;;;;;;;15.52;4.82;;;18.90;99.90;;;;;;5047580;28;20128;-67
2022/07/25 03:20:23;;;;;;;16.48;4.85;;;18.90;99.90;;;;;;5053475;28;20028;-68
2022/07/25 03:22:48;;;;;;;19.55;5.70;;;18.90;99.90;;;;;;5048650;28;20033;-67
2022/07/25 03:25:14;;;;;;;14.35;4.80;;;18.90;99.90;;;;;;5046770;28;20036;-68
2022/07/25 03:27:39;;;;;;;17.40;5.50;;;18.90;99.90;;;;;;5054372;28;20769;-68
2022/07/25 03:30:06;;;;;;;19.10;5.35;;;18.90;99.90;;;;;;5062838;28;20052;-68
2022/07/25 03:32:32;;;;;;;16.70;4.97;;;18.80;99.90;;;;;;5059642;28;20036;-68
2022/07/25 03:34:57;;;;;;;16.17;5.10;;;18.80;99.90;;;;;;5065871;28;20033;-68
2022/07/25 03:37:23;;;;;;;17.73;5.22;;;18.80;99.90;;;;;;5067574;28;20036;-66
2022/07/25 03:39:49;;;;;;;15.77;5.00;;;18.80;99.90;;;;;;5062178;28;20477;-67
2022/07/25 03:42:15;;;;;;;16.98;5.05;;;18.80;99.90;;;;;;5066432;28;20059;-67
2022/07/25 03:44:40;;;;;;;19.92;5.20;;;18.90;99.90;;;;;;5058803;28;20064;-69
2022/07/25 03:47:06;;;;;;;16.63;4.65;;;18.90;99.90;;;;;;5065573;28;20047;-66
2022/07/25 03:49:32;;;;;;;16.40;5.07;;;18.90;99.90;;;;;;5041570;28;20075;-68
2022/07/25 03:51:58;;;;;;;16.23;4.72;;;18.80;99.90;;;;;;5066166;28;20106;-68
2022/07/25 03:54:24;;;;;;;16.52;4.88;;;18.80;99.90;;;;;;5067956;28;20055;-68
2022/07/25 03:56:50;;;;;;;13.25;4.95;;;18.90;99.90;;;;;;5066770;28;20045;-68
2022/07/25 03:59:19;;;;;;;19.77;5.45;;;18.80;99.90;;;;;;5059836;28;20041;-68
2022/07/25 04:01:46;;;;;;;19.98;4.47;;;18.80;99.90;;;;;;5052978;28;20040;-68
2022/07/25 04:04:12;;;;;;;20.85;5.78;;;18.80;99.90;;;;;;5051627;28;20486;-69
2022/07/25 04:06:38;;;;;;;16.52;4.97;;;18.80;99.90;;;;;;5062622;28;20048;-68
2022/07/25 04:09:05;;;;;;;17.08;5.47;;;18.80;99.90;;;;;;5058279;28;20498;-68
2022/07/25 04:11:31;;;;;;;19.17;5.32;;;18.80;99.90;;;;;;5067275;28;20044;-68
2022/07/25 04:13:57;;;;;;;20.30;5.43;;;18.80;99.90;;;;;;5050722;28;20037;-69
2022/07/25 04:16:23;;;;;;;22.67;6.22;;;18.80;99.90;;;;;;5068007;28;20028;-68
2022/07/25 04:18:51;;;;;;;20.52;5.68;;;18.80;99.90;;;;;;5066324;28;20068;-68
2022/07/25 04:21:17;;;;;;;16.50;5.28;;;18.80;99.90;;;;;;5070629;28;20037;-68
2022/07/25 04:23:43;;;;;;;22.90;5.97;;;18.70;99.90;;;;;;5067863;28;20039;-67
2022/07/25 04:26:09;;;;;;;22.98;5.53;;;18.70;99.90;;;;;;5064792;28;20086;-68
2022/07/25 04:28:34;;;;;;;22.73;5.78;;;18.70;99.90;;;;;;5044064;28;20507;-67
2022/07/25 04:31:00;;;;;;;22.42;6.10;;;18.70;99.90;;;;;;5064965;28;20055;-67
2022/07/25 04:33:26;;;;;;;20.35;5.68;;;18.70;99.90;;;;;;5058762;28;20032;-68
2022/07/25 04:35:52;;;;;;;21.55;6.32;;;18.70;99.90;;;;;;5058171;28;20028;-68
2022/07/25 04:38:17;;;;;;;22.83;5.43;;;18.70;99.90;;;;;;5054572;28;20035;-68
2022/07/25 04:40:43;;;;;;;20.20;5.40;;;18.70;99.90;;;;;;5058928;28;20402;-68
2022/07/25 04:43:09;;;;;;;20.10;5.75;;;18.70;99.90;;;;;;5063340;28;20025;-67
2022/07/25 04:45:35;;;;;;;17.73;5.18;;;18.60;99.90;;;;;;5060036;28;20421;-67
2022/07/25 04:48:01;;;;;;;18.35;5.10;;;18.60;99.90;;;;;;5060061;28;20066;-68
2022/07/25 04:50:28;;;;;;;17.65;6.50;;;18.60;99.90;;;;;;5043469;28;20032;-67
2022/07/25 04:52:53;;;;;;;22.92;6.50;;;18.50;99.90;;;;;;5050660;28;20806;-67
2022/07/25 04:55:19;;;;;;;20.48;5.35;;;18.50;99.90;;;;;;5049381;28;20052;-67
2022/07/25 04:57:46;;;;;;;18.45;5.50;;;18.50;99.90;;;;;;5060851;28;20036;-67
2022/07/25 05:00:12;;;;;;;21.15;5.53;;;18.50;99.90;;;;;;5039612;28;20386;-68
2022/07/25 05:02:38;;;;;;;21.55;6.55;;;18.50;99.90;;;;;;5056040;28;20037;-67
2022/07/25 05:05:05;;;;;;;16.42;5.72;;;18.50;99.90;;;;;;5067916;28;20563;-67
2022/07/25 05:07:30;;;;;;;17.55;5.68;;;18.50;99.90;;;;;;5061157;28;20037;-68
2022/07/25 05:09:56;;;;;;;18.05;5.28;;;18.50;99.90;;;;;;5050517;28;20060;-68
2022/07/25 05:12:22;;;;;;;15.65;4.78;;;18.50;99.90;;;;;;5065886;28;20166;-68
2022/07/25 05:14:47;;;;;;;15.77;5.47;;;18.50;99.90;;;;;;5068369;28;20119;-67
2022/07/25 05:17:13;;;;;;;22.45;5.43;;;18.50;99.90;;;;;;5067774;28;20121;-68
2022/07/25 05:19:38;;;;;;;17.42;4.90;;;18.60;99.90;;;;;;5065081;28;20037;-67
2022/07/25 05:22:04;;;;;;;15.02;4.63;;;18.60;99.90;;;;;;5058403;28;20044;-68
2022/07/25 05:24:36;;;;;;;16.35;4.70;;;18.60;99.90;;;;;;5068050;28;20111;-67
2022/07/25 05:27:03;;;;;;;15.43;4.60;;;18.60;99.90;;;;;;5065802;28;20054;-66
2022/07/25 05:29:30;;;;;;;14.75;4.70;;;18.60;99.90;;;;;;5050051;28;20122;-67
2022/07/25 05:31:55;;;;;;;17.65;4.75;;;18.60;99.90;;;;;;5047960;28;20033;-66
2022/07/25 05:34:21;;;;;;;21.67;4.40;;;18.60;99.90;;;;;;5050161;28;20075;-66
2022/07/25 05:36:47;;;;;;;21.42;4.93;;;18.60;99.90;;;;;;5047638;28;20371;-67
2022/07/25 05:39:13;;;;;;;18.02;4.97;;;18.60;99.90;;;;;;5046899;28;20037;-67
2022/07/25 05:41:38;;;;;;;13.73;3.70;;;18.60;99.90;;;;;;5047223;28;20032;-68
2022/07/25 05:44:04;;;;;;;18.77;4.35;;;18.60;99.90;;;;;;5046862;28;20064;-66
2022/07/25 05:46:34;;;;;;;16.45;4.43;;;18.70;99.90;;;;;;5046962;28;20475;-67
2022/07/25 05:48:59;;;;;;;14.27;5.05;;;18.70;99.90;;;;;;5049374;28;20124;-67
2022/07/25 05:51:26;;;;;;;13.85;4.20;;;18.80;99.90;;;;;;5048055;28;20108;-67
2022/07/25 05:53:51;;;;;;;16.08;4.45;;;18.80;99.90;;;;;;5042394;28;20051;-68
2022/07/25 05:56:17;;;;;;;18.70;4.75;;;18.90;99.90;;;;;;5037470;28;20041;-67
2022/07/25 05:58:44;;;;;;;12.27;3.38;;;18.90;99.90;;;;;;5045898;28;20607;-68
2022/07/25 06:01:14;;;;;;;14.25;3.92;;;19.00;99.90;;;;;;5045338;28;20099;-67
2022/07/25 06:03:40;;;;;;;14.30;3.75;;;19.00;99.90;;;;;;5039925;28;20695;-66
2022/07/25 06:06:07;;;;;;;14.38;3.58;;;19.00;99.90;;;;;;5047417;28;20051;-67
2022/07/25 06:08:37;;;;;;;12.95;3.25;;;19.00;99.90;;;;;;5049076;28;20706;-68
2022/07/25 06:11:04;;;;;;;16.85;3.97;;;19.00;99.90;;;;;;5047464;28;20068;-66
2022/07/25 06:13:31;;;;;;;13.73;3.42;;;19.00;99.90;;;;;;5047074;28;20037;-67
2022/07/25 06:15:57;;;;;;;18.55;3.72;;;19.00;99.90;;;;;;5035668;28;20036;-66
2022/07/25 06:18:24;;;;;;;15.45;3.45;;;19.00;99.90;;;;;;5045761;28;20029;-69
2022/07/25 06:20:50;;;;;;;16.40;3.47;;;19.00;99.90;;;;;;5045721;28;20037;-67
2022/07/25 06:23:16;;;;;;;10.98;3.45;;;19.00;99.90;;;;;;5046105;28;20040;-66
2022/07/25 06:25:42;;;;;;;15.23;3.45;;;19.00;99.90;;;;;;5049065;28;20727;-67
2022/07/25 06:28:08;;;;;;;9.50;2.47;;;19.00;99.90;;;;;;5048265;28;20063;-67
2022/07/25 06:30:34;;;;;;;13.02;2.55;;;19.00;99.90;;;;;;5050962;28;20037;-68
2022/07/25 06:33:00;;;;;;;11.00;2.70;;;19.10;99.90;;;;;;5031636;28;20027;-68
2022/07/25 06:35:25;;;;;;;8.57;2.30;;;19.00;99.90;;;;;;5059027;28;20527;-68
2022/07/25 06:37:51;;;;;;;10.80;2.33;;;19.00;99.90;;;;;;5049515;28;20122;-68
2022/07/25 06:40:17;;;;;;;16.08;3.22;;;19.00;99.90;;;;;;5048590;28;20624;-68
2022/07/25 06:42:45;;;;;;;11.45;2.75;;;19.00;99.90;;;;;;5044847;28;20037;-68
2022/07/25 06:45:11;;;;;;;11.60;2.67;;;18.90;99.90;;;;;;5027938;28;20043;-67
2022/07/25 06:47:39;;;;;;;10.20;2.80;;;18.90;99.90;;;;;;5048175;28;20041;-67
2022/07/25 06:50:06;;;;;;;13.75;2.90;;;18.90;99.90;;;;;;5048407;28;20037;-67
2022/07/25 06:52:31;;;;;;;11.40;2.40;;;18.90;99.90;;;;;;5043745;28;20041;-69
2022/07/25 06:54:57;;;;;;;12.15;2.42;;;18.80;99.90;;;;;;5047502;28;20155;-68
2022/07/25 06:57:23;;;;;;;11.30;2.40;;;18.80;99.90;;;;;;5047108;28;20580;-68
2022/07/25 06:59:48;;;;;;;11.85;2.65;;;18.90;99.90;;;;;;5047644;28;20448;-68
2022/07/25 07:02:14;;;;;;;10.73;2.38;;;18.90;99.90;;;;;;5051899;28;20039;-68
2022/07/25 07:04:40;;;;;;;11.40;2.42;;;18.90;99.90;;;;;;5047235;28;20025;-67
2022/07/25 07:07:06;;;;;;;9.00;2.20;;;18.90;99.90;;;;;;5043052;28;20044;-68
2022/07/25 07:09:31;;;;;;;10.88;2.05;;;18.90;99.90;;;;;;5047487;28;20029;-68
2022/07/25 07:11:57;;;;;;;14.18;2.90;;;19.00;99.90;;;;;;5047925;28;20723;-67
2022/07/25 07:14:23;;;;;;;11.93;2.90;;;19.00;99.90;;;;;;5045569;28;20124;-68
2022/07/25 07:16:49;;;;;;;9.90;2.15;;;19.00;99.90;;;;;;5025426;28;20079;-67
2022/07/25 07:19:14;;;;;;;12.43;3.90;;;19.10;99.90;;;;;;5044878;28;20045;-67
2022/07/25 07:21:40;;;;;;;12.40;2.30;;;19.20;99.90;;;;;;5043973;28;20048;-67
2022/07/25 07:24:07;;;;;;;11.35;2.17;;;19.30;99.90;;;;;;5045125;28;20494;-68
2022/07/25 07:26:33;;;;;;;9.63;2.30;;;19.40;99.90;;;;;;5044532;28;20028;-67
2022/07/25 07:28:59;;;;;;;11.45;2.25;;;19.40;99.90;;;;;;5033619;28;20055;-68
2022/07/25 07:31:25;;;;;;;15.80;2.97;;;19.50;99.90;;;;;;5044427;28;20029;-67
2022/07/25 07:33:51;;;;;;;10.65;2.78;;;19.50;99.90;;;;;;5045015;28;20032;-67
2022/07/25 07:36:16;;;;;;;12.15;2.05;;;19.50;99.90;;;;;;5041727;28;20043;-67
2022/07/25 07:38:43;;;;;;;12.38;2.20;;;19.50;99.90;;;;;;5044983;28;20090;-67
2022/07/25 07:41:09;;;;;;;10.30;1.73;;;19.50;99.90;;;;;;5047689;28;20029;-67
2022/07/25 07:43:35;;;;;;;8.85;1.40;;;19.40;99.90;;;;;;5040806;28;20037;-66
2022/07/25 07:46:01;;;;;;;9.75;1.65;;;19.40;99.90;;;;;;5040449;28;20036;-67
2022/07/25 07:48:29;;;;;;;6.45;1.55;;;19.40;99.90;;;;;;5045931;28;20040;-66
2022/07/25 07:50:54;;;;;;;10.65;2.10;;;19.40;99.90;;;;;;5042255;28;20052;-67
2022/07/25 07:53:20;;;;;;;18.02;2.35;;;19.30;99.90;;;;;;5040210;28;20033;-67
2022/07/25 07:55:53;;;;;;;11.15;2.05;;;19.40;99.90;;;;;;5044692;28;20075;-67
2022/07/25 07:58:20;;;;;;;12.20;2.15;;;19.50;99.90;;;;;;5047313;28;20452;-67
2022/07/25 08:00:47;;;;;;;9.15;1.90;;;19.40;99.90;;;;;;5047380;28;20025;-67
2022/07/25 08:03:17;;;;;;;8.93;1.65;;;19.40;99.90;;;;;;5047234;28;20032;-67
2022/07/25 08:05:44;;;;;;;9.32;1.83;;;19.40;99.90;;;;;;5045817;28;20048;-68
2022/07/25 08:08:11;;;;;;;10.25;1.98;;;19.40;99.90;;;;;;5037443;28;20029;-68
2022/07/25 08:10:40;;;;;;;9.43;1.70;;;19.50;99.90;;;;;;5039758;28;20036;-68
2022/07/25 08:13:15;;;;;;;8.10;1.75;;;19.40;99.90;;;;;;5041320;28;20077;-67
2022/07/25 08:15:43;;;;;;;9.57;2.00;;;19.40;99.90;;;;;;5040497;28;20479;-66
2022/07/25 08:18:09;;;;;;;9.80;1.80;;;19.50;99.90;;;;;;5042567;28;20029;-67
2022/07/25 08:20:35;;;;;;;11.52;2.25;;;19.60;99.90;;;;;;5042455;28;20033;-67
2022/07/25 08:23:01;;;;;;;9.75;2.00;;;19.80;99.90;;;;;;5043729;28;20487;-68
2022/07/25 08:25:27;;;;;;;11.13;1.65;;;19.90;99.90;;;;;;5044769;28;20033;-68
2022/07/25 08:27:52;;;;;;;11.23;1.77;;;20.00;99.90;;;;;;5037816;28;20434;-68
2022/07/25 08:30:18;;;;;;;11.43;2.15;;;20.10;99.90;;;;;;5042122;28;20056;-67
2022/07/25 08:32:58;;;;;;;14.45;2.15;;;20.30;99.90;;;;;;5043467;28;20057;-67
2022/07/25 08:35:26;;;;;;;8.13;1.58;;;20.50;99.90;;;;;;5042074;28;20759;-68
2022/07/25 08:37:52;;;;;;;13.23;1.75;;;20.70;99.90;;;;;;5044537;28;20028;-67
2022/07/25 08:40:20;;;;;;;11.15;1.83;;;20.50;99.90;;;;;;5050291;28;20553;-67
2022/07/25 08:42:46;;;;;;;9.63;1.60;;;20.50;99.90;;;;;;5047121;28;20447;-66
2022/07/25 08:45:15;;;;;;;10.73;2.05;;;20.40;99.90;;;;;;5049703;28;20059;-67
2022/07/25 08:47:41;;;;;;;10.13;1.40;;;20.30;99.90;;;;;;5050600;28;20643;-66
2022/07/25 08:50:10;;;;;;;9.90;1.70;;;20.40;99.90;;;;;;5049320;28;20048;-69
2022/07/25 08:52:36;;;;;;;8.65;1.60;;;20.60;99.90;;;;;;5043586;28;20073;-67
2022/07/25 08:55:05;;;;;;;7.75;1.40;;;20.70;99.90;;;;;;5061128;28;20033;-67
2022/07/25 08:57:30;;;;;;;8.25;1.85;;;20.90;99.90;;;;;;5045085;28;20033;-67
2022/07/25 08:59:57;;;;;;;8.23;1.67;;;21.00;99.90;;;;;;5046835;28;20043;-66
2022/07/25 09:02:27;;;;;;;9.02;1.70;;;20.90;99.90;;;;;;5046853;28;20024;-67
2022/07/25 09:04:58;;;;;;;6.82;1.42;;;20.90;99.90;;;;;;5046458;28;20899;-69
2022/07/25 09:07:31;;;;;;;10.05;1.88;;;21.00;99.90;;;;;;5046762;28;20037;-72
2022/07/25 09:09:57;;;;;;;7.75;1.42;;;21.10;99.90;;;;;;5043438;28;20040;-68
2022/07/25 09:12:27;;;;;;;9.27;1.33;;;21.00;99.90;;;;;;5044930;28;20033;-67
2022/07/25 09:14:53;;;;;;;10.23;1.55;;;20.90;99.90;;;;;;5046712;28;20116;-68
2022/07/25 09:17:18;;;;;;;6.82;1.17;;;20.90;99.90;;;;;;5046187;28;20504;-67
2022/07/25 09:19:55;;;;;;;9.43;1.60;;;21.10;99.90;;;;;;5041910;28;20036;-68
2022/07/25 09:22:21;;;;;;;10.35;1.63;;;21.20;99.90;;;;;;5041686;28;20043;-67
2022/07/25 09:24:47;;;;;;;6.45;1.13;;;21.20;99.90;;;;;;5045191;28;20042;-67
2022/07/25 09:27:14;;;;;;;9.40;1.48;;;21.10;99.90;;;;;;5046612;28;20029;-67
2022/07/25 09:29:44;;;;;;;9.27;1.38;;;20.90;99.90;;;;;;5044505;28;20052;-67
2022/07/25 09:32:15;;;;;;;6.78;1.35;;;20.80;99.90;;;;;;5041893;28;20037;-68
2022/07/25 09:34:43;;;;;;;6.97;1.38;;;20.60;99.90;;;;;;5041370;28;20025;-68
2022/07/25 09:37:11;;;;;;;7.13;0.95;;;20.50;99.90;;;;;;5046220;28;20029;-70
2022/07/25 09:39:39;;;;;;;8.13;1.23;;;20.50;99.90;;;;;;5045420;28;20585;-67
2022/07/25 09:42:19;;;;;;;10.15;1.70;;;20.40;99.90;;;;;;5043268;28;20083;-68
2022/07/25 09:44:57;;;;;;;8.80;1.40;;;20.40;99.90;;;;;;5042030;28;20037;-68
2022/07/25 09:47:23;;;;;;;9.10;1.87;;;20.50;99.90;;;;;;5038355;28;20025;-68
2022/07/25 09:49:49;;;;;;;10.05;1.67;;;20.60;99.90;;;;;;5041878;28;20509;-67
2022/07/25 09:52:16;;;;;;;9.15;1.67;;;20.90;99.90;;;;;;5046893;28;20121;-66
2022/07/25 09:54:42;;;;;;;12.00;1.63;;;21.00;99.90;;;;;;5039900;28;20062;-67
2022/07/25 09:57:08;;;;;;;8.57;1.80;;;21.00;99.90;;;;;;5048327;28;20055;-66
2022/07/25 09:59:35;;;;;;;11.35;2.22;;;21.10;99.90;;;;;;5048726;28;20126;-69
2022/07/25 10:02:32;;;;;;;7.13;1.30;;;21.20;99.90;;;;;;5048632;28;20047;-66
2022/07/25 10:05:35;;;;;;;10.20;1.70;;;21.30;99.90;;;;;;5048717;28;20465;-67
2022/07/25 10:08:05;;;;;;;7.40;1.50;;;21.20;99.90;;;;;;5006770;28;20049;-67
2022/07/25 10:10:37;;;;;;;12.10;2.03;;;21.40;99.90;;;;;;5023174;28;20045;-68
2022/07/25 10:13:06;;;;;;;7.57;1.40;;;21.40;99.90;;;;;;5006977;28;20177;-68
2022/07/25 10:16:01;;;;;;;9.45;1.63;;;21.50;99.90;;;;;;5006892;28;20054;-67
2022/07/25 10:18:29;;;;;;;13.68;1.83;;;21.30;99.90;;;;;;4990320;28;20077;-68
2022/07/25 10:21:08;;;;;;;10.48;1.95;;;21.10;99.90;;;;;;5006889;28;20149;-66
2022/07/25 10:23:34;;;;;;;9.10;1.88;;;20.90;99.90;;;;;;5006738;28;20073;-68
2022/07/25 10:26:01;;;;;;;11.15;1.85;;;20.70;99.90;;;;;;5006746;28;20038;-68
2022/07/25 10:28:36;;;;;;;8.82;1.70;;;20.50;99.90;;;;;;5020759;28;20129;-68
2022/07/25 10:31:02;;;;;;;10.75;2.10;;;20.50;99.90;;;;;;5006564;28;20508;-67
2022/07/25 10:33:27;;;;;;;13.43;1.63;;;20.50;99.90;;;;;;5006490;28;20044;-68
2022/07/25 10:36:05;;;;;;;11.98;1.95;;;20.60;99.90;;;;;;5006219;28;20088;-68
2022/07/25 10:38:32;;;;;;;9.38;1.58;;;20.50;99.90;;;;;;5006413;28;20037;-67
2022/07/25 10:41:02;;;;;;;10.27;1.73;;;20.40;99.90;;;;;;5008820;28;20091;-67
2022/07/25 10:43:28;;;;;;;11.30;2.03;;;20.40;99.90;;;;;;5046645;28;20398;-67
2022/07/25 10:45:57;;;;;;;14.45;2.10;;;20.30;99.90;;;;;;5028805;28;20059;-67
2022/07/25 10:48:27;;;;;;;9.00;1.90;;;20.10;99.90;;;;;;5028562;28;20040;-67
2022/07/25 10:51:00;;;;;;;8.88;1.67;;;20.10;99.90;;;;;;5028922;28;20207;-68
2022/07/25 10:53:32;;;;;;;7.57;1.70;;;20.10;99.90;;;;;;5028703;28;20102;-67
2022/07/25 10:56:04;;;;;;;8.57;1.75;;;20.20;99.90;;;;;;5028679;28;20056;-67
2022/07/25 10:58:51;;;;;;;14.35;1.92;;;20.10;99.90;;;;;;5028842;28;20037;-68
2022/07/25 11:01:27;;;;;;;12.07;1.92;;;20.10;99.90;;;;;;5028157;28;20113;-67
2022/07/25 11:03:55;;;;;;;12.15;2.45;;;20.20;99.90;;;;;;5028450;28;20025;-68
2022/07/25 11:06:36;;;;;;;7.32;1.50;;;20.30;99.90;;;;;;5028460;28;20768;-67
2022/07/25 11:09:26;;;;;;;12.50;2.03;;;20.30;99.90;;;;;;5043751;28;20040;-68
2022/07/25 11:11:57;;;;;;;11.20;1.92;;;20.20;99.90;;;;;;5048590;28;20025;-67
2022/07/25 11:14:32;;;;;;;10.68;1.83;;;20.00;99.90;;;;;;5030310;28;20039;-67
2022/07/25 11:17:13;;;;;;;9.18;1.88;;;19.70;99.90;;;;;;5048069;28;20079;-66
2022/07/25 11:19:40;;;;;;;10.18;2.42;;;19.60;99.90;;;;;;5048108;28;20064;-66
2022/07/25 11:22:07;;;;;;;10.40;1.90;;;19.60;99.90;;;;;;5048247;28;20029;-66
2022/07/25 11:24:44;;;;;;;12.82;2.70;;;19.70;99.90;;;;;;5048105;28;20101;-68
2022/07/25 11:27:18;;;;;;;11.02;1.98;;;19.60;99.90;;;;;;5048141;28;20502;-66
2022/07/25 11:29:44;;;;;;;15.00;2.40;;;19.60;99.90;;;;;;5047756;28;20473;-66
2022/07/25 11:32:11;;;;;;;13.35;2.40;;;19.50;99.90;;;;;;5047840;28;20029;-67
2022/07/25 11:34:41;;;;;;;13.15;2.30;;;19.30;99.90;;;;;;5047917;28;20029;-66
2022/07/25 11:37:08;;;;;;;10.95;2.40;;;19.20;99.90;;;;;;5048275;28;20079;-67
2022/07/25 11:39:36;;;;;;;11.18;1.98;;;19.00;99.90;;;;;;5048124;28;20040;-65
2022/07/25 11:42:02;;;;;;;12.70;2.65;;;19.00;99.90;;;;;;5048066;28;20033;-66
2022/07/25 11:44:48;;;;;;;12.48;2.35;;;19.00;99.90;;;;;;5047920;28;20029;-69
2022/07/25 11:47:31;;;;;;;12.55;2.13;;;19.00;99.90;;;;;;5047929;28;20082;-67
2022/07/25 11:50:02;;;;;;;10.93;2.10;;;19.10;99.90;;;;;;5047814;28;20043;-66
2022/07/25 11:52:30;;;;;;;11.07;2.00;;;19.30;99.90;;;;;;5047786;28;20032;-68
2022/07/25 11:55:01;;;;;;;14.20;2.13;;;19.60;99.90;;;;;;5047964;28;20486;-67
2022/07/25 11:57:29;;;;;;;12.30;2.13;;;19.80;99.90;;;;;;5048211;28;20039;-67
2022/07/25 11:59:55;;;;;;;10.90;2.00;;;19.80;99.90;;;;;;5047826;28;20041;-67
2022/07/25 12:02:26;;;;;;;10.20;2.25;;;19.70;99.90;;;;;;5047731;28;20024;-67
2022/07/25 12:04:56;;;;;;;14.63;2.17;;;19.70;99.90;;;;;;5041974;28;20081;-67
2022/07/25 12:07:43;;;;;;;7.82;1.70;;;19.60;99.90;;;;;;5044685;28;20040;-69
2022/07/25 12:10:30;;;;;;;11.43;1.95;;;19.50;99.90;;;;;;5040896;28;20024;-67
2022/07/25 12:12:57;;;;;;;12.48;2.20;;;19.50;99.90;;;;;;5046165;28;20124;-68
2022/07/25 12:15:29;;;;;;;9.45;1.90;;;19.50;99.90;;;;;;5050700;28;20037;-68
2022/07/25 12:17:56;;;;;;;11.65;2.13;;;19.50;99.90;;;;;;5050148;28;20033;-67
2022/07/25 12:20:26;;;;;;;9.10;1.92;;;19.70;99.90;;;;;;5049809;28;20664;-67
2022/07/25 12:22:56;;;;;;;8.98;1.80;;;19.70;99.90;;;;;;5048883;28;20398;-67
2022/07/25 12:25:22;;;;;;;10.20;1.67;;;19.70;99.90;;;;;;5048128;28;20475;-67
2022/07/25 12:27:48;;;;;;;10.18;1.60;;;19.70;99.90;;;;;;5050150;28;20039;-68
2022/07/25 12:30:14;;;;;;;10.00;1.73;;;19.70;99.90;;;;;;5046998;28;20061;-69
2022/07/25 12:32:40;;;;;;;7.30;1.60;;;19.70;99.90;;;;;;5050814;28;20758;-69
2022/07/25 12:35:09;;;;;;;8.80;2.03;;;19.70;99.90;;;;;;5047468;28;20029;-66
2022/07/25 12:37:35;;;;;;;8.70;1.70;;;19.70;99.90;;;;;;5046337;28;20090;-68
2022/07/25 12:40:01;;;;;;;7.32;1.50;;;19.70;99.90;;;;;;5049949;28;20037;-66